sensor_id;sensor_type;location;lat;lon;timestamp;temperature;humidity
52471;DHT22;38382;53.160;7.026;2023-06-26T00:01:27;22.10;99.90
52471;DHT22;38382;53.160;7.026;2023-06-26T00:03:55;22.10;99.90
52471;DHT22;38382;53.160;7.026;2023-06-26T00:06:21;22.10;99.90
52471;DHT22;38382;53.160;7.026;2023-06-26T00:08:50;22.00;99.90
52471;DHT22;38382;53.160;7.026;2023-06-26T00:11:16;22.00;99.90
52471;DHT22;38382;53.160;7.026;2023-06-26T00:13:42;22.10;99.90
52471;DHT22;38382;53.160;7.026;2023-06-26T00:16:07;22.10;99.90
52471;DHT22;38382;53.160;7.026;2023-06-26T00:18:33;22.10;99.90
52471;DHT22;38382;53.160;7.026;2023-06-26T00:20:59;22.10;99.90
52471;DHT22;38382;53.160;7.026;2023-06-26T00:23:24;22.10;99.90
52471;DHT22;38382;53.160;7.026;2023-06-26T00:25:50;22.00;99.90
52471;DHT22;38382;53.160;7.026;2023-06-26T00:28:16;22.00;99.90
52471;DHT22;38382;53.160;7.026;2023-06-26T00:30:41;22.00;99.90
52471;DHT22;38382;53.160;7.026;2023-06-26T00:33:07;22.00;99.90
52471;DHT22;38382;53.160;7.026;2023-06-26T00:35:33;22.00;99.90
52471;DHT22;38382;53.160;7.026;2023-06-26T00:37:58;22.00;99.90
52471;DHT22;38382;53.160;7.026;2023-06-26T00:40:24;22.00;99.90
52471;DHT22;38382;53.160;7.026;2023-06-26T00:42:52;22.00;99.90
52471;DHT22;38382;53.160;7.026;2023-06-26T00:45:17;22.00;99.90
52471;DHT22;38382;53.160;7.026;2023-06-26T00:47:43;22.00;99.90
52471;DHT22;38382;53.160;7.026;2023-06-26T00:50:09;22.00;99.90
52471;DHT22;38382;53.160;7.026;2023-06-26T00:52:35;22.00;99.90
52471;DHT22;38382;53.160;7.026;2023-06-26T00:55:01;21.90;99.90
52471;DHT22;38382;53.160;7.026;2023-06-26T00:57:27;21.90;99.90
52471;DHT22;38382;53.160;7.026;2023-06-26T00:59:53;21.90;99.90
52471;DHT22;38382;53.160;7.026;2023-06-26T01:02:19;21.90;99.90
52471;DHT22;38382;53.160;7.026;2023-06-26T01:04:49;21.80;99.90
52471;DHT22;38382;53.160;7.026;2023-06-26T01:07:16;21.80;99.90
52471;DHT22;38382;53.160;7.026;2023-06-26T01:09:46;21.80;99.90
52471;DHT22;38382;53.160;7.026;2023-06-26T01:12:12;21.80;99.90
52471;DHT22;38382;53.160;7.026;2023-06-26T01:14:38;21.80;99.90
52471;DHT22;38382;53.160;7.026;2023-06-26T01:17:04;21.70;99.90
52471;DHT22;38382;53.160;7.026;2023-06-26T01:19:32;21.70;99.90
52471;DHT22;38382;53.160;7.026;2023-06-26T01:24:47;21.70;99.90
52471;DHT22;38382;53.160;7.026;2023-06-26T01:27:18;21.70;99.90
52471;DHT22;38382;53.160;7.026;2023-06-26T01:29:45;21.70;99.90
52471;DHT22;38382;53.160;7.026;2023-06-26T01:32:12;21.60;99.90
52471;DHT22;38382;53.160;7.026;2023-06-26T01:34:38;21.60;99.90
52471;DHT22;38382;53.160;7.026;2023-06-26T01:37:04;21.50;99.90
52471;DHT22;38382;53.160;7.026;2023-06-26T01:39:29;21.50;99.90
52471;DHT22;38382;53.160;7.026;2023-06-26T01:41:55;21.50;99.90
52471;DHT22;38382;53.160;7.026;2023-06-26T01:44:29;21.40;99.90
52471;DHT22;38382;53.160;7.026;2023-06-26T01:47:05;21.40;99.90
52471;DHT22;38382;53.160;7.026;2023-06-26T01:52:16;21.30;99.90
52471;DHT22;38382;53.160;7.026;2023-06-26T01:57:31;21.30;99.90
52471;DHT22;38382;53.160;7.026;2023-06-26T01:59:58;21.20;99.90
52471;DHT22;38382;53.160;7.026;2023-06-26T02:02:24;21.20;99.90
52471;DHT22;38382;53.160;7.026;2023-06-26T02:04:51;21.20;99.90
52471;DHT22;38382;53.160;7.026;2023-06-26T02:07:17;21.20;99.90
52471;DHT22;38382;53.160;7.026;2023-06-26T02:09:43;21.10;99.90
52471;DHT22;38382;53.160;7.026;2023-06-26T02:12:09;21.10;99.90
52471;DHT22;38382;53.160;7.026;2023-06-26T02:14:35;21.10;99.90
52471;DHT22;38382;53.160;7.026;2023-06-26T02:17:00;21.20;99.90
52471;DHT22;38382;53.160;7.026;2023-06-26T02:19:26;21.20;99.90
52471;DHT22;38382;53.160;7.026;2023-06-26T02:21:56;21.20;99.90
52471;DHT22;38382;53.160;7.026;2023-06-26T02:24:21;21.20;99.90
52471;DHT22;38382;53.160;7.026;2023-06-26T02:26:47;21.20;99.90
52471;DHT22;38382;53.160;7.026;2023-06-26T02:29:14;21.20;99.90
52471;DHT22;38382;53.160;7.026;2023-06-26T02:31:40;21.20;99.90
52471;DHT22;38382;53.160;7.026;2023-06-26T02:34:06;21.20;99.90
52471;DHT22;38382;53.160;7.026;2023-06-26T02:36:32;21.20;99.90
52471;DHT22;38382;53.160;7.026;2023-06-26T02:38:58;21.20;99.90
52471;DHT22;38382;53.160;7.026;2023-06-26T02:41:23;21.20;99.90
52471;DHT22;38382;53.160;7.026;2023-06-26T02:43:49;21.10;99.90
52471;DHT22;38382;53.160;7.026;2023-06-26T02:46:15;21.10;99.90
52471;DHT22;38382;53.160;7.026;2023-06-26T02:48:40;21.10;99.90
52471;DHT22;38382;53.160;7.026;2023-06-26T02:51:07;21.10;99.90
52471;DHT22;38382;53.160;7.026;2023-06-26T02:53:33;21.10;99.90
52471;DHT22;38382;53.160;7.026;2023-06-26T02:55:59;21.10;99.90
52471;DHT22;38382;53.160;7.026;2023-06-26T02:58:24;21.10;99.90
52471;DHT22;38382;53.160;7.026;2023-06-26T03:00:50;21.10;99.90
52471;DHT22;38382;53.160;7.026;2023-06-26T03:03:17;21.10;99.90
52471;DHT22;38382;53.160;7.026;2023-06-26T03:05:43;21.10;99.90
52471;DHT22;38382;53.160;7.026;2023-06-26T03:08:08;21.10;99.90
52471;DHT22;38382;53.160;7.026;2023-06-26T03:10:34;21.10;99.90
52471;DHT22;38382;53.160;7.026;2023-06-26T03:13:00;21.10;99.90
52471;DHT22;38382;53.160;7.026;2023-06-26T03:15:25;21.10;99.90
52471;DHT22;38382;53.160;7.026;2023-06-26T03:17:51;21.10;99.90
52471;DHT22;38382;53.160;7.026;2023-06-26T03:20:17;21.10;99.90
52471;DHT22;38382;53.160;7.026;2023-06-26T03:22:42;21.00;99.90
52471;DHT22;38382;53.160;7.026;2023-06-26T03:25:08;21.00;99.90
52471;DHT22;38382;53.160;7.026;2023-06-26T03:27:34;21.00;99.90
52471;DHT22;38382;53.160;7.026;2023-06-26T03:30:00;21.00;99.90
52471;DHT22;38382;53.160;7.026;2023-06-26T03:32:25;21.00;99.90
52471;DHT22;38382;53.160;7.026;2023-06-26T03:34:51;21.00;99.90
52471;DHT22;38382;53.160;7.026;2023-06-26T03:37:18;21.00;99.90
52471;DHT22;38382;53.160;7.026;2023-06-26T03:39:44;21.00;99.90
52471;DHT22;38382;53.160;7.026;2023-06-26T03:42:10;21.00;99.90
52471;DHT22;38382;53.160;7.026;2023-06-26T03:44:35;21.00;99.90
52471;DHT22;38382;53.160;7.026;2023-06-26T03:47:01;21.00;99.90
52471;DHT22;38382;53.160;7.026;2023-06-26T03:49:27;21.00;99.90
52471;DHT22;38382;53.160;7.026;2023-06-26T03:51:52;21.00;99.90
52471;DHT22;38382;53.160;7.026;2023-06-26T03:54:18;21.00;99.90
52471;DHT22;38382;53.160;7.026;2023-06-26T03:56:44;21.00;99.90
52471;DHT22;38382;53.160;7.026;2023-06-26T03:59:10;21.00;99.90
52471;DHT22;38382;53.160;7.026;2023-06-26T04:01:37;21.00;99.90
52471;DHT22;38382;53.160;7.026;2023-06-26T04:04:03;21.10;99.90
52471;DHT22;38382;53.160;7.026;2023-06-26T04:06:29;21.10;99.90
52471;DHT22;38382;53.160;7.026;2023-06-26T04:08:57;21.10;99.90
52471;DHT22;38382;53.160;7.026;2023-06-26T04:11:23;21.10;99.90
52471;DHT22;38382;53.160;7.026;2023-06-26T04:13:49;21.10;99.90
52471;DHT22;38382;53.160;7.026;2023-06-26T04:16:15;21.20;99.90
52471;DHT22;38382;53.160;7.026;2023-06-26T04:18:41;21.20;99.90
52471;DHT22;38382;53.160;7.026;2023-06-26T04:21:09;21.20;99.90
52471;DHT22;38382;53.160;7.026;2023-06-26T04:23:36;21.30;99.90
52471;DHT22;38382;53.160;7.026;2023-06-26T04:26:03;21.30;99.90
52471;DHT22;38382;53.160;7.026;2023-06-26T04:28:31;21.30;99.90
52471;DHT22;38382;53.160;7.026;2023-06-26T04:30:57;21.30;99.90
52471;DHT22;38382;53.160;7.026;2023-06-26T04:33:24;21.30;99.90
52471;DHT22;38382;53.160;7.026;2023-06-26T04:35:51;21.30;99.90
52471;DHT22;38382;53.160;7.026;2023-06-26T04:38:17;21.30;99.90
52471;DHT22;38382;53.160;7.026;2023-06-26T04:40:42;21.30;99.90
52471;DHT22;38382;53.160;7.026;2023-06-26T04:43:08;21.30;99.90
52471;DHT22;38382;53.160;7.026;2023-06-26T04:45:34;21.20;99.90
52471;DHT22;38382;53.160;7.026;2023-06-26T04:47:59;21.20;99.90
52471;DHT22;38382;53.160;7.026;2023-06-26T04:50:25;21.30;99.90
52471;DHT22;38382;53.160;7.026;2023-06-26T04:52:51;21.20;99.90
52471;DHT22;38382;53.160;7.026;2023-06-26T04:55:17;21.30;99.90
52471;DHT22;38382;53.160;7.026;2023-06-26T04:57:43;21.30;99.90
52471;DHT22;38382;53.160;7.026;2023-06-26T05:00:09;21.30;99.90
52471;DHT22;38382;53.160;7.026;2023-06-26T05:02:36;21.30;99.90
52471;DHT22;38382;53.160;7.026;2023-06-26T05:05:02;21.30;99.90
52471;DHT22;38382;53.160;7.026;2023-06-26T05:07:28;21.40;99.90
52471;DHT22;38382;53.160;7.026;2023-06-26T05:09:53;21.40;99.90
52471;DHT22;38382;53.160;7.026;2023-06-26T05:12:19;21.50;99.90
52471;DHT22;38382;53.160;7.026;2023-06-26T05:14:45;21.50;99.90
52471;DHT22;38382;53.160;7.026;2023-06-26T05:17:14;21.60;99.90
52471;DHT22;38382;53.160;7.026;2023-06-26T05:19:40;21.60;99.90
52471;DHT22;38382;53.160;7.026;2023-06-26T05:22:06;21.70;99.90
52471;DHT22;38382;53.160;7.026;2023-06-26T05:24:38;21.80;99.90
52471;DHT22;38382;53.160;7.026;2023-06-26T05:27:04;21.90;99.90
52471;DHT22;38382;53.160;7.026;2023-06-26T05:29:31;22.00;99.90
52471;DHT22;38382;53.160;7.026;2023-06-26T05:31:58;22.10;99.90
52471;DHT22;38382;53.160;7.026;2023-06-26T05:34:24;22.10;99.90
52471;DHT22;38382;53.160;7.026;2023-06-26T05:36:51;22.00;99.90
52471;DHT22;38382;53.160;7.026;2023-06-26T05:39:17;22.00;99.90
52471;DHT22;38382;53.160;7.026;2023-06-26T05:41:44;22.00;99.90
52471;DHT22;38382;53.160;7.026;2023-06-26T05:44:10;22.00;99.90
52471;DHT22;38382;53.160;7.026;2023-06-26T05:46:36;22.10;99.90
52471;DHT22;38382;53.160;7.026;2023-06-26T05:49:02;22.20;99.90
52471;DHT22;38382;53.160;7.026;2023-06-26T05:51:28;22.30;99.90
52471;DHT22;38382;53.160;7.026;2023-06-26T05:53:54;22.30;99.90
52471;DHT22;38382;53.160;7.026;2023-06-26T05:56:20;22.40;99.90
52471;DHT22;38382;53.160;7.026;2023-06-26T05:58:47;22.40;99.90
52471;DHT22;38382;53.160;7.026;2023-06-26T06:01:12;22.40;99.90
52471;DHT22;38382;53.160;7.026;2023-06-26T06:03:39;22.30;99.90
52471;DHT22;38382;53.160;7.026;2023-06-26T06:06:05;22.30;99.90
52471;DHT22;38382;53.160;7.026;2023-06-26T06:08:31;22.10;99.90
52471;DHT22;38382;53.160;7.026;2023-06-26T06:10:57;22.10;99.90
52471;DHT22;38382;53.160;7.026;2023-06-26T06:13:22;22.10;99.90
52471;DHT22;38382;53.160;7.026;2023-06-26T06:15:48;22.00;99.90
52471;DHT22;38382;53.160;7.026;2023-06-26T06:18:14;22.00;99.90
52471;DHT22;38382;53.160;7.026;2023-06-26T06:20:40;21.90;99.90
52471;DHT22;38382;53.160;7.026;2023-06-26T06:23:05;21.80;99.90
52471;DHT22;38382;53.160;7.026;2023-06-26T06:25:31;21.70;99.90
52471;DHT22;38382;53.160;7.026;2023-06-26T06:27:57;21.60;99.90
52471;DHT22;38382;53.160;7.026;2023-06-26T06:30:23;21.60;99.90
52471;DHT22;38382;53.160;7.026;2023-06-26T06:32:49;21.40;99.90
52471;DHT22;38382;53.160;7.026;2023-06-26T06:35:20;21.30;99.90
52471;DHT22;38382;53.160;7.026;2023-06-26T06:37:45;21.20;99.90
52471;DHT22;38382;53.160;7.026;2023-06-26T06:40:11;21.10;99.90
52471;DHT22;38382;53.160;7.026;2023-06-26T06:42:37;21.00;99.90
52471;DHT22;38382;53.160;7.026;2023-06-26T06:45:04;21.00;99.90
52471;DHT22;38382;53.160;7.026;2023-06-26T06:47:31;21.00;99.90
52471;DHT22;38382;53.160;7.026;2023-06-26T06:49:57;21.00;99.90
52471;DHT22;38382;53.160;7.026;2023-06-26T06:52:22;21.10;99.90
52471;DHT22;38382;53.160;7.026;2023-06-26T06:54:52;21.20;99.90
52471;DHT22;38382;53.160;7.026;2023-06-26T06:57:19;21.20;99.90
52471;DHT22;38382;53.160;7.026;2023-06-26T06:59:46;21.30;99.90
52471;DHT22;38382;53.160;7.026;2023-06-26T07:02:13;21.40;99.90
52471;DHT22;38382;53.160;7.026;2023-06-26T07:04:39;21.60;99.90
52471;DHT22;38382;53.160;7.026;2023-06-26T07:07:04;21.70;99.90
52471;DHT22;38382;53.160;7.026;2023-06-26T07:09:30;21.80;99.90
52471;DHT22;38382;53.160;7.026;2023-06-26T07:11:56;21.80;99.90
52471;DHT22;38382;53.160;7.026;2023-06-26T07:14:22;21.80;99.90
52471;DHT22;38382;53.160;7.026;2023-06-26T07:16:48;21.80;99.90
52471;DHT22;38382;53.160;7.026;2023-06-26T07:19:13;21.80;99.90
52471;DHT22;38382;53.160;7.026;2023-06-26T07:21:39;21.80;99.90
52471;DHT22;38382;53.160;7.026;2023-06-26T07:24:06;22.00;99.90
52471;DHT22;38382;53.160;7.026;2023-06-26T07:26:32;22.00;99.90
52471;DHT22;38382;53.160;7.026;2023-06-26T07:28:58;21.90;99.90
52471;DHT22;38382;53.160;7.026;2023-06-26T07:31:23;21.90;99.90
52471;DHT22;38382;53.160;7.026;2023-06-26T07:33:49;21.80;99.90
52471;DHT22;38382;53.160;7.026;2023-06-26T07:36:15;21.70;99.90
52471;DHT22;38382;53.160;7.026;2023-06-26T07:38:41;21.80;99.90
52471;DHT22;38382;53.160;7.026;2023-06-26T07:41:06;21.90;99.90
52471;DHT22;38382;53.160;7.026;2023-06-26T07:43:32;22.00;99.90
52471;DHT22;38382;53.160;7.026;2023-06-26T07:45:58;22.10;99.90
52471;DHT22;38382;53.160;7.026;2023-06-26T07:48:24;22.10;99.90
52471;DHT22;38382;53.160;7.026;2023-06-26T07:50:50;22.10;99.90
52471;DHT22;38382;53.160;7.026;2023-06-26T07:53:16;22.10;99.90
52471;DHT22;38382;53.160;7.026;2023-06-26T07:55:43;22.20;99.90
52471;DHT22;38382;53.160;7.026;2023-06-26T07:58:08;22.30;99.90
52471;DHT22;38382;53.160;7.026;2023-06-26T08:00:35;22.40;99.90
52471;DHT22;38382;53.160;7.026;2023-06-26T08:03:01;22.60;99.90
52471;DHT22;38382;53.160;7.026;2023-06-26T08:05:26;22.70;99.90
52471;DHT22;38382;53.160;7.026;2023-06-26T08:07:52;22.80;99.90
52471;DHT22;38382;53.160;7.026;2023-06-26T08:10:18;23.00;99.90
52471;DHT22;38382;53.160;7.026;2023-06-26T08:12:44;23.20;99.90
52471;DHT22;38382;53.160;7.026;2023-06-26T08:15:11;23.40;99.90
52471;DHT22;38382;53.160;7.026;2023-06-26T08:17:37;23.50;99.90
52471;DHT22;38382;53.160;7.026;2023-06-26T08:20:04;23.50;99.90
52471;DHT22;38382;53.160;7.026;2023-06-26T08:22:30;23.40;99.90
52471;DHT22;38382;53.160;7.026;2023-06-26T08:24:56;23.20;99.90
52471;DHT22;38382;53.160;7.026;2023-06-26T08:27:22;23.20;99.90
52471;DHT22;38382;53.160;7.026;2023-06-26T08:29:48;23.20;99.90
52471;DHT22;38382;53.160;7.026;2023-06-26T08:32:14;23.30;99.90
52471;DHT22;38382;53.160;7.026;2023-06-26T08:34:40;23.20;99.90
52471;DHT22;38382;53.160;7.026;2023-06-26T08:37:06;23.00;99.90
52471;DHT22;38382;53.160;7.026;2023-06-26T08:39:34;23.30;99.90
52471;DHT22;38382;53.160;7.026;2023-06-26T08:42:00;23.60;99.90
52471;DHT22;38382;53.160;7.026;2023-06-26T08:44:26;23.50;99.90
52471;DHT22;38382;53.160;7.026;2023-06-26T08:46:52;23.30;99.90
52471;DHT22;38382;53.160;7.026;2023-06-26T08:49:26;23.20;99.90
52471;DHT22;38382;53.160;7.026;2023-06-26T08:52:02;23.20;99.90
52471;DHT22;38382;53.160;7.026;2023-06-26T08:54:33;22.60;99.90
52471;DHT22;38382;53.160;7.026;2023-06-26T08:57:00;22.90;99.90
52471;DHT22;38382;53.160;7.026;2023-06-26T08:59:26;23.20;99.90
52471;DHT22;38382;53.160;7.026;2023-06-26T09:01:52;23.50;99.90
52471;DHT22;38382;53.160;7.026;2023-06-26T09:04:18;23.70;99.90
52471;DHT22;38382;53.160;7.026;2023-06-26T09:06:44;23.70;99.90
52471;DHT22;38382;53.160;7.026;2023-06-26T09:09:10;23.40;99.90
52471;DHT22;38382;53.160;7.026;2023-06-26T09:11:38;23.30;99.90
52471;DHT22;38382;53.160;7.026;2023-06-26T09:14:50;23.10;99.90
52471;DHT22;38382;53.160;7.026;2023-06-26T09:24:15;23.80;99.90
52471;DHT22;38382;53.160;7.026;2023-06-26T09:27:09;23.80;99.90
52471;DHT22;38382;53.160;7.026;2023-06-26T09:29:47;23.70;99.90
52471;DHT22;38382;53.160;7.026;2023-06-26T09:32:25;23.60;99.90
52471;DHT22;38382;53.160;7.026;2023-06-26T09:35:14;23.60;99.90
52471;DHT22;38382;53.160;7.026;2023-06-26T09:41:51;23.40;99.90
52471;DHT22;38382;53.160;7.026;2023-06-26T09:44:18;23.50;99.90
52471;DHT22;38382;53.160;7.026;2023-06-26T09:46:45;23.60;99.90
52471;DHT22;38382;53.160;7.026;2023-06-26T09:49:12;23.60;99.90
52471;DHT22;38382;53.160;7.026;2023-06-26T09:51:39;23.60;99.90
52471;DHT22;38382;53.160;7.026;2023-06-26T09:54:06;23.50;99.90
52471;DHT22;38382;53.160;7.026;2023-06-26T09:56:38;24.00;99.90
52471;DHT22;38382;53.160;7.026;2023-06-26T09:59:05;24.30;99.90
52471;DHT22;38382;53.160;7.026;2023-06-26T10:01:32;24.30;99.90
52471;DHT22;38382;53.160;7.026;2023-06-26T10:03:58;23.80;99.90
52471;DHT22;38382;53.160;7.026;2023-06-26T10:06:31;24.10;99.90
52471;DHT22;38382;53.160;7.026;2023-06-26T10:09:00;23.90;99.90
52471;DHT22;38382;53.160;7.026;2023-06-26T10:11:35;23.90;99.90
52471;DHT22;38382;53.160;7.026;2023-06-26T10:14:03;24.30;99.90
52471;DHT22;38382;53.160;7.026;2023-06-26T10:16:31;24.90;99.90
52471;DHT22;38382;53.160;7.026;2023-06-26T10:19:03;25.50;99.90
52471;DHT22;38382;53.160;7.026;2023-06-26T10:21:32;25.60;99.90
52471;DHT22;38382;53.160;7.026;2023-06-26T10:24:00;25.10;98.80
52471;DHT22;38382;53.160;7.026;2023-06-26T10:26:28;25.20;98.80
52471;DHT22;38382;53.160;7.026;2023-06-26T10:28:56;25.50;98.10
52471;DHT22;38382;53.160;7.026;2023-06-26T10:34:55;26.00;97.50
52471;DHT22;38382;53.160;7.026;2023-06-26T10:37:41;26.10;96.40
52471;DHT22;38382;53.160;7.026;2023-06-26T10:40:13;25.90;95.40
52471;DHT22;38382;53.160;7.026;2023-06-26T10:42:43;25.60;96.00
52471;DHT22;38382;53.160;7.026;2023-06-26T10:45:22;25.60;95.00
52471;DHT22;38382;53.160;7.026;2023-06-26T10:47:53;25.80;94.70
52471;DHT22;38382;53.160;7.026;2023-06-26T10:50:28;26.00;94.30
52471;DHT22;38382;53.160;7.026;2023-06-26T10:53:09;25.90;93.50
52471;DHT22;38382;53.160;7.026;2023-06-26T10:55:54;26.30;93.50
52471;DHT22;38382;53.160;7.026;2023-06-26T11:03:46;26.80;91.40
52471;DHT22;38382;53.160;7.026;2023-06-26T11:06:19;26.50;91.10
52471;DHT22;38382;53.160;7.026;2023-06-26T11:09:21;26.60;91.20
52471;DHT22;38382;53.160;7.026;2023-06-26T11:11:59;26.60;89.70
52471;DHT22;38382;53.160;7.026;2023-06-26T11:14:36;26.50;90.10
52471;DHT22;38382;53.160;7.026;2023-06-26T11:17:02;26.70;89.00
52471;DHT22;38382;53.160;7.026;2023-06-26T11:19:36;26.50;87.20
52471;DHT22;38382;53.160;7.026;2023-06-26T11:22:03;26.30;84.30
52471;DHT22;38382;53.160;7.026;2023-06-26T11:24:33;26.30;87.80
52471;DHT22;38382;53.160;7.026;2023-06-26T11:27:15;26.50;86.60
52471;DHT22;38382;53.160;7.026;2023-06-26T11:29:47;26.90;86.70
52471;DHT22;38382;53.160;7.026;2023-06-26T11:32:17;26.80;86.50
52471;DHT22;38382;53.160;7.026;2023-06-26T11:34:43;27.20;87.10
52471;DHT22;38382;53.160;7.026;2023-06-26T11:37:11;27.10;85.10
52471;DHT22;38382;53.160;7.026;2023-06-26T11:39:49;26.90;84.80
52471;DHT22;38382;53.160;7.026;2023-06-26T11:42:30;26.50;85.70
52471;DHT22;38382;53.160;7.026;2023-06-26T11:44:56;26.80;87.80
52471;DHT22;38382;53.160;7.026;2023-06-26T11:47:34;26.90;85.00
52471;DHT22;38382;53.160;7.026;2023-06-26T11:50:14;26.70;83.90
52471;DHT22;38382;53.160;7.026;2023-06-26T11:52:45;26.60;84.10
52471;DHT22;38382;53.160;7.026;2023-06-26T11:55:18;26.30;83.70
52471;DHT22;38382;53.160;7.026;2023-06-26T11:57:50;26.00;85.90
52471;DHT22;38382;53.160;7.026;2023-06-26T12:00:18;25.90;83.40
52471;DHT22;38382;53.160;7.026;2023-06-26T12:02:45;26.00;83.20
52471;DHT22;38382;53.160;7.026;2023-06-26T12:05:18;26.00;80.70
52471;DHT22;38382;53.160;7.026;2023-06-26T12:15:51;25.70;82.00
52471;DHT22;38382;53.160;7.026;2023-06-26T12:18:16;26.10;81.30
52471;DHT22;38382;53.160;7.026;2023-06-26T12:20:42;26.50;81.70
52471;DHT22;38382;53.160;7.026;2023-06-26T12:23:14;26.50;83.40
52471;DHT22;38382;53.160;7.026;2023-06-26T12:25:40;26.30;81.30
52471;DHT22;38382;53.160;7.026;2023-06-26T12:28:16;26.40;82.50
52471;DHT22;38382;53.160;7.026;2023-06-26T12:30:46;26.00;80.10
52471;DHT22;38382;53.160;7.026;2023-06-26T12:33:15;25.90;82.40
52471;DHT22;38382;53.160;7.026;2023-06-26T12:35:45;26.10;82.80
52471;DHT22;38382;53.160;7.026;2023-06-26T12:38:11;25.90;82.50
52471;DHT22;38382;53.160;7.026;2023-06-26T12:40:47;25.90;82.60
52471;DHT22;38382;53.160;7.026;2023-06-26T12:43:23;25.90;80.70
52471;DHT22;38382;53.160;7.026;2023-06-26T12:45:54;25.90;78.30
52471;DHT22;38382;53.160;7.026;2023-06-26T12:48:21;26.20;80.60
52471;DHT22;38382;53.160;7.026;2023-06-26T12:50:46;26.40;79.70
52471;DHT22;38382;53.160;7.026;2023-06-26T12:53:13;26.30;80.90
52471;DHT22;38382;53.160;7.026;2023-06-26T12:55:40;26.40;80.50
52471;DHT22;38382;53.160;7.026;2023-06-26T12:58:06;26.60;82.60
52471;DHT22;38382;53.160;7.026;2023-06-26T13:00:33;26.60;81.60
52471;DHT22;38382;53.160;7.026;2023-06-26T13:02:59;26.40;79.80
52471;DHT22;38382;53.160;7.026;2023-06-26T13:05:25;25.70;79.60
52471;DHT22;38382;53.160;7.026;2023-06-26T13:07:50;25.80;79.30
52471;DHT22;38382;53.160;7.026;2023-06-26T13:10:16;25.90;80.40
52471;DHT22;38382;53.160;7.026;2023-06-26T13:12:42;26.00;79.60
52471;DHT22;38382;53.160;7.026;2023-06-26T13:15:08;25.90;78.90
52471;DHT22;38382;53.160;7.026;2023-06-26T13:17:35;25.70;80.80
52471;DHT22;38382;53.160;7.026;2023-06-26T13:20:13;25.70;79.90
52471;DHT22;38382;53.160;7.026;2023-06-26T13:22:39;25.60;81.10
52471;DHT22;38382;53.160;7.026;2023-06-26T13:25:08;25.60;80.30
52471;DHT22;38382;53.160;7.026;2023-06-26T13:27:34;25.70;81.30
52471;DHT22;38382;53.160;7.026;2023-06-26T13:29:59;25.80;81.40
52471;DHT22;38382;53.160;7.026;2023-06-26T13:32:27;26.00;81.90
52471;DHT22;38382;53.160;7.026;2023-06-26T13:34:53;25.80;80.00
52471;DHT22;38382;53.160;7.026;2023-06-26T13:37:19;26.10;80.50
52471;DHT22;38382;53.160;7.026;2023-06-26T13:39:45;26.30;80.80
52471;DHT22;38382;53.160;7.026;2023-06-26T13:42:18;26.20;80.00
52471;DHT22;38382;53.160;7.026;2023-06-26T13:44:46;25.90;79.60
52471;DHT22;38382;53.160;7.026;2023-06-26T13:47:24;26.40;80.00
52471;DHT22;38382;53.160;7.026;2023-06-26T13:49:50;26.10;76.70
52471;DHT22;38382;53.160;7.026;2023-06-26T13:52:15;26.00;77.30
52471;DHT22;38382;53.160;7.026;2023-06-26T13:54:41;25.90;79.60
52471;DHT22;38382;53.160;7.026;2023-06-26T13:57:08;25.90;79.60
52471;DHT22;38382;53.160;7.026;2023-06-26T13:59:39;26.00;77.80
52471;DHT22;38382;53.160;7.026;2023-06-26T14:02:08;25.70;79.00
52471;DHT22;38382;53.160;7.026;2023-06-26T14:04:40;25.80;79.20
52471;DHT22;38382;53.160;7.026;2023-06-26T14:07:09;25.90;79.60
52471;DHT22;38382;53.160;7.026;2023-06-26T14:09:39;26.10;79.40
52471;DHT22;38382;53.160;7.026;2023-06-26T14:12:06;26.40;78.60
52471;DHT22;38382;53.160;7.026;2023-06-26T14:14:32;26.40;80.80
52471;DHT22;38382;53.160;7.026;2023-06-26T14:17:01;26.00;80.30
52471;DHT22;38382;53.160;7.026;2023-06-26T14:19:27;25.70;83.30
52471;DHT22;38382;53.160;7.026;2023-06-26T14:22:22;25.70;82.60
52471;DHT22;38382;53.160;7.026;2023-06-26T14:25:02;25.70;84.60
52471;DHT22;38382;53.160;7.026;2023-06-26T14:27:28;25.90;83.10
52471;DHT22;38382;53.160;7.026;2023-06-26T14:29:53;26.20;84.60
52471;DHT22;38382;53.160;7.026;2023-06-26T14:32:22;26.20;82.30
52471;DHT22;38382;53.160;7.026;2023-06-26T14:34:49;26.00;83.10
52471;DHT22;38382;53.160;7.026;2023-06-26T14:37:15;26.20;81.50
52471;DHT22;38382;53.160;7.026;2023-06-26T14:39:43;26.00;80.90
52471;DHT22;38382;53.160;7.026;2023-06-26T14:42:19;25.80;80.50
52471;DHT22;38382;53.160;7.026;2023-06-26T14:44:54;25.30;80.00
52471;DHT22;38382;53.160;7.026;2023-06-26T14:47:19;25.60;80.30
52471;DHT22;38382;53.160;7.026;2023-06-26T14:49:48;26.00;79.60
52471;DHT22;38382;53.160;7.026;2023-06-26T14:52:32;26.40;78.30
52471;DHT22;38382;53.160;7.026;2023-06-26T14:54:57;26.80;78.10
52471;DHT22;38382;53.160;7.026;2023-06-26T14:57:31;26.80;75.80
52471;DHT22;38382;53.160;7.026;2023-06-26T14:59:59;27.30;75.70
52471;DHT22;38382;53.160;7.026;2023-06-26T15:02:27;27.80;78.00
52471;DHT22;38382;53.160;7.026;2023-06-26T15:04:53;28.20;77.00
52471;DHT22;38382;53.160;7.026;2023-06-26T15:07:19;28.20;76.10
52471;DHT22;38382;53.160;7.026;2023-06-26T15:09:44;28.00;76.00
52471;DHT22;38382;53.160;7.026;2023-06-26T15:12:10;27.50;75.80
52471;DHT22;38382;53.160;7.026;2023-06-26T15:14:39;27.60;76.10
52471;DHT22;38382;53.160;7.026;2023-06-26T15:17:05;27.50;76.10
52471;DHT22;38382;53.160;7.026;2023-06-26T15:19:47;28.00;77.40
52471;DHT22;38382;53.160;7.026;2023-06-26T15:22:13;28.20;77.50
52471;DHT22;38382;53.160;7.026;2023-06-26T15:32:04;27.80;77.60
52471;DHT22;38382;53.160;7.026;2023-06-26T15:34:30;28.10;75.90
52471;DHT22;38382;53.160;7.026;2023-06-26T15:36:58;28.30;76.10
52471;DHT22;38382;53.160;7.026;2023-06-26T15:39:24;28.40;75.40
52471;DHT22;38382;53.160;7.026;2023-06-26T15:41:50;28.50;75.10
52471;DHT22;38382;53.160;7.026;2023-06-26T15:44:15;28.80;74.50
52471;DHT22;38382;53.160;7.026;2023-06-26T15:46:41;28.20;73.10
52471;DHT22;38382;53.160;7.026;2023-06-26T15:49:13;28.20;74.30
52471;DHT22;38382;53.160;7.026;2023-06-26T15:51:39;28.10;74.10
52471;DHT22;38382;53.160;7.026;2023-06-26T15:54:13;27.90;74.50
52471;DHT22;38382;53.160;7.026;2023-06-26T15:56:46;28.10;75.30
52471;DHT22;38382;53.160;7.026;2023-06-26T15:59:14;28.20;75.00
52471;DHT22;38382;53.160;7.026;2023-06-26T16:01:44;28.70;73.50
52471;DHT22;38382;53.160;7.026;2023-06-26T16:04:11;29.00;72.10
52471;DHT22;38382;53.160;7.026;2023-06-26T16:06:37;30.00;73.40
52471;DHT22;38382;53.160;7.026;2023-06-26T16:09:03;29.90;74.40
52471;DHT22;38382;53.160;7.026;2023-06-26T16:11:29;30.20;74.30
52471;DHT22;38382;53.160;7.026;2023-06-26T16:13:58;30.20;73.30
52471;DHT22;38382;53.160;7.026;2023-06-26T16:16:24;29.80;73.50
52471;DHT22;38382;53.160;7.026;2023-06-26T16:25:40;28.20;76.20